BEL9FU EDDM-EBBR
Flight info
| Callsign | BEL9FU |
|---|---|
| Flight time | 0h 59m |
| Altitude | 36000 |
| Route | GIVMI6Q/08L GIVMI Y101 INBED DCT REKDI DCT LOHRE DCT BATTY |
| Aircraft | A319/M-DE3FGIJ1LORVWY/H |
Departure
| Time | 2026-05-01 11:32 |
|---|---|
| Airport | Munich Airport (EDDM) |
Arrival
| Time | 2026-05-01 12:31 |
|---|---|
| Airport | Brussels Airport (EBBR) |
| Time | Latitude | Longitude | Altitude | Speed | Heading |
|---|---|---|---|---|---|
| 2026-05-01 10:58 | 48.35099 | 11.79367 | 1476 ft | 0 kts | 263° |
| 2026-05-01 11:19 | 48.35100 | 11.79389 | 1474 ft | 4 kts | 263° |
| 2026-05-01 11:19 | 48.35103 | 11.79430 | 1482 ft | 4 kts | 263° |
| 2026-05-01 11:19 | 48.35106 | 11.79461 | 1485 ft | 4 kts | 267° |
| 2026-05-01 11:19 | 48.35105 | 11.79490 | 1485 ft | 4 kts | 291° |
| 2026-05-01 11:20 | 48.35093 | 11.79515 | 1471 ft | 4 kts | 345° |
| 2026-05-01 11:20 | 48.35071 | 11.79521 | 1474 ft | 1 kts | 353° |
| 2026-05-01 11:20 | 48.35070 | 11.79521 | 1473 ft | 0 kts | 353° |
| 2026-05-01 11:22 | 48.35077 | 11.79520 | 1476 ft | 3 kts | 353° |
| 2026-05-01 11:23 | 48.35109 | 11.79541 | 1485 ft | 7 kts | 46° |
| 2026-05-01 11:23 | 48.35138 | 11.79627 | 1478 ft | 12 kts | 41° |
| 2026-05-01 11:23 | 48.35236 | 11.79628 | 1485 ft | 16 kts | 354° |
| 2026-05-01 11:23 | 48.35347 | 11.79608 | 1485 ft | 16 kts | 353° |
| 2026-05-01 11:24 | 48.35395 | 11.79600 | 1482 ft | 17 kts | 354° |
| 2026-05-01 11:24 | 48.35512 | 11.79580 | 1485 ft | 17 kts | 353° |
| 2026-05-01 11:24 | 48.35754 | 11.79538 | 1478 ft | 18 kts | 353° |
| 2026-05-01 11:25 | 48.35879 | 11.79505 | 1479 ft | 18 kts | 324° |
| 2026-05-01 11:25 | 48.36019 | 11.79328 | 1485 ft | 10 kts | 354° |
| 2026-05-01 11:25 | 48.36082 | 11.79291 | 1482 ft | 10 kts | 300° |
| 2026-05-01 11:26 | 48.36082 | 11.79185 | 1485 ft | 11 kts | 266° |
| 2026-05-01 11:26 | 48.36058 | 11.78864 | 1485 ft | 20 kts | 263° |
| 2026-05-01 11:26 | 48.36041 | 11.78650 | 1485 ft | 21 kts | 263° |
| 2026-05-01 11:27 | 48.36025 | 11.78437 | 1477 ft | 21 kts | 263° |
| 2026-05-01 11:27 | 48.36010 | 11.78222 | 1485 ft | 21 kts | 264° |
| 2026-05-01 11:27 | 48.35992 | 11.78009 | 1485 ft | 21 kts | 263° |
| 2026-05-01 11:27 | 48.35978 | 11.77813 | 1485 ft | 9 kts | 262° |
| 2026-05-01 11:28 | 48.35971 | 11.77715 | 1485 ft | 10 kts | 265° |
| 2026-05-01 11:28 | 48.35966 | 11.77615 | 1485 ft | 11 kts | 257° |
| 2026-05-01 11:28 | 48.35952 | 11.77476 | 1485 ft | 16 kts | 263° |
| 2026-05-01 11:29 | 48.35931 | 11.77081 | 1485 ft | 22 kts | 291° |
| 2026-05-01 11:29 | 48.36048 | 11.76970 | 1481 ft | 21 kts | 355° |
| 2026-05-01 11:29 | 48.36167 | 11.76950 | 1480 ft | 2 kts | 353° |
| 2026-05-01 11:30 | 48.36170 | 11.76949 | 1481 ft | 1 kts | 353° |
| 2026-05-01 11:30 | 48.36177 | 11.76948 | 1483 ft | 1 kts | 353° |
| 2026-05-01 11:30 | 48.36189 | 11.76946 | 1485 ft | 2 kts | 353° |
| 2026-05-01 11:30 | 48.36211 | 11.76942 | 1476 ft | 5 kts | 353° |
| 2026-05-01 11:31 | 48.36278 | 11.76934 | 1481 ft | 13 kts | 8° |
| 2026-05-01 11:31 | 48.36296 | 11.77007 | 1482 ft | 0 kts | 84° |
| 2026-05-01 11:32 | 48.36309 | 11.77185 | 1475 ft | 53 kts | 84° |
| 2026-05-01 11:32 | 48.36379 | 11.78099 | 1480 ft | 121 kts | 83° |
| 2026-05-01 11:32 | 48.36490 | 11.79518 | 1863 ft | 139 kts | 83° |
| 2026-05-01 11:32 | 48.36614 | 11.80968 | 2581 ft | 140 kts | 83° |
| 2026-05-01 11:33 | 48.36739 | 11.82428 | 3289 ft | 141 kts | 84° |
| 2026-05-01 11:33 | 48.36852 | 11.83894 | 4042 ft | 141 kts | 85° |
| 2026-05-01 11:33 | 48.37059 | 11.85339 | 4754 ft | 145 kts | 72° |
| 2026-05-01 11:33 | 48.37805 | 11.86535 | 5149 ft | 180 kts | 26° |
| 2026-05-01 11:34 | 48.39156 | 11.86774 | 5468 ft | 211 kts | 4° |
| 2026-05-01 11:34 | 48.40716 | 11.86549 | 5810 ft | 239 kts | 356° |
| 2026-05-01 11:34 | 48.42363 | 11.85672 | 6277 ft | 270 kts | 327° |
| 2026-05-01 11:34 | 48.43795 | 11.83666 | 6971 ft | 289 kts | 315° |
| 2026-05-01 11:35 | 48.45134 | 11.81334 | 7566 ft | 297 kts | 311° |
| 2026-05-01 11:35 | 48.46418 | 11.78908 | 8650 ft | 297 kts | 310° |
| 2026-05-01 11:35 | 48.47708 | 11.76458 | 9659 ft | 299 kts | 310° |
| 2026-05-01 11:35 | 48.48880 | 11.73843 | 10606 ft | 304 kts | 304° |
| 2026-05-01 11:36 | 48.50025 | 11.71023 | 11009 ft | 327 kts | 303° |
| 2026-05-01 11:36 | 48.51226 | 11.67960 | 11327 ft | 351 kts | 303° |
| 2026-05-01 11:36 | 48.52498 | 11.64672 | 11587 ft | 374 kts | 302° |
| 2026-05-01 11:36 | 48.53848 | 11.61176 | 11804 ft | 396 kts | 302° |
| 2026-05-01 11:37 | 48.55258 | 11.57540 | 12360 ft | 405 kts | 303° |
| 2026-05-01 11:37 | 48.56709 | 11.53868 | 13056 ft | 409 kts | 303° |
| 2026-05-01 11:37 | 48.58201 | 11.50183 | 13786 ft | 413 kts | 304° |
| 2026-05-01 11:37 | 48.59714 | 11.46486 | 14483 ft | 415 kts | 304° |
| 2026-05-01 11:38 | 48.61239 | 11.42762 | 15148 ft | 419 kts | 304° |
| 2026-05-01 11:38 | 48.62753 | 11.39049 | 15743 ft | 422 kts | 304° |
| 2026-05-01 11:38 | 48.64296 | 11.35246 | 16320 ft | 426 kts | 304° |
| 2026-05-01 11:38 | 48.65847 | 11.31398 | 16862 ft | 431 kts | 303° |
| 2026-05-01 11:39 | 48.67412 | 11.27507 | 17404 ft | 435 kts | 303° |
| 2026-05-01 11:39 | 48.68989 | 11.23588 | 17949 ft | 438 kts | 303° |
| 2026-05-01 11:39 | 48.70580 | 11.19631 | 18476 ft | 442 kts | 303° |
| 2026-05-01 11:39 | 48.72183 | 11.15634 | 18956 ft | 445 kts | 303° |
| 2026-05-01 11:40 | 48.73796 | 11.11611 | 19419 ft | 448 kts | 303° |
| 2026-05-01 11:40 | 48.75412 | 11.07570 | 19891 ft | 450 kts | 303° |
| 2026-05-01 11:40 | 48.77040 | 11.03498 | 20356 ft | 452 kts | 303° |
| 2026-05-01 11:40 | 48.78668 | 10.99414 | 20822 ft | 454 kts | 303° |
| 2026-05-01 11:41 | 48.80304 | 10.95302 | 21235 ft | 456 kts | 303° |
| 2026-05-01 11:41 | 48.81944 | 10.91171 | 21663 ft | 458 kts | 303° |
| 2026-05-01 11:41 | 48.83593 | 10.87013 | 22104 ft | 460 kts | 303° |
| 2026-05-01 11:41 | 48.85242 | 10.82848 | 22539 ft | 462 kts | 303° |
| 2026-05-01 11:42 | 48.86901 | 10.78654 | 22939 ft | 464 kts | 303° |
| 2026-05-01 11:42 | 48.88564 | 10.74437 | 23330 ft | 466 kts | 303° |
| 2026-05-01 11:42 | 48.90229 | 10.70206 | 23729 ft | 468 kts | 303° |
| 2026-05-01 11:42 | 48.91902 | 10.65949 | 24091 ft | 469 kts | 303° |
| 2026-05-01 11:43 | 48.93579 | 10.61682 | 24398 ft | 471 kts | 303° |
| 2026-05-01 11:43 | 48.95259 | 10.57398 | 24707 ft | 473 kts | 303° |
| 2026-05-01 11:43 | 48.96948 | 10.53092 | 25021 ft | 474 kts | 303° |
| 2026-05-01 11:44 | 49.00328 | 10.44436 | 25608 ft | 477 kts | 303° |
| 2026-05-01 11:44 | 49.02025 | 10.40084 | 25886 ft | 479 kts | 303° |
| 2026-05-01 11:44 | 49.03728 | 10.35718 | 26162 ft | 480 kts | 303° |
| 2026-05-01 11:44 | 49.05439 | 10.31327 | 26478 ft | 481 kts | 302° |
| 2026-05-01 11:45 | 49.07139 | 10.26946 | 26890 ft | 479 kts | 302° |
| 2026-05-01 11:45 | 49.08831 | 10.22573 | 27308 ft | 478 kts | 303° |
| 2026-05-01 11:45 | 49.10518 | 10.18205 | 27715 ft | 477 kts | 303° |
| 2026-05-01 11:45 | 49.12196 | 10.13848 | 28166 ft | 475 kts | 302° |
| 2026-05-01 11:46 | 49.13867 | 10.09503 | 28607 ft | 474 kts | 302° |
| 2026-05-01 11:46 | 49.15531 | 10.05177 | 29063 ft | 472 kts | 302° |
| 2026-05-01 11:46 | 49.17189 | 10.00856 | 29531 ft | 471 kts | 303° |
| 2026-05-01 11:46 | 49.18842 | 9.96546 | 30018 ft | 469 kts | 303° |
| 2026-05-01 11:47 | 49.20490 | 9.92242 | 30506 ft | 468 kts | 302° |
| 2026-05-01 11:47 | 49.22129 | 9.87957 | 30916 ft | 466 kts | 302° |
| 2026-05-01 11:47 | 49.23763 | 9.83680 | 31332 ft | 465 kts | 302° |
| 2026-05-01 11:47 | 49.25387 | 9.79419 | 31722 ft | 464 kts | 302° |
| 2026-05-01 11:48 | 49.26464 | 9.76590 | 31983 ft | 463 kts | 302° |
| 2026-05-01 11:48 | 49.28080 | 9.72339 | 32406 ft | 462 kts | 302° |
| 2026-05-01 11:48 | 49.29685 | 9.68097 | 32843 ft | 460 kts | 302° |
| 2026-05-01 11:48 | 49.31287 | 9.63861 | 33242 ft | 459 kts | 302° |
| 2026-05-01 11:49 | 49.32886 | 9.59630 | 33655 ft | 458 kts | 302° |
| 2026-05-01 11:49 | 49.34474 | 9.55418 | 34086 ft | 456 kts | 302° |
| 2026-05-01 11:49 | 49.36572 | 9.49844 | 34614 ft | 454 kts | 302° |
| 2026-05-01 11:49 | 49.37635 | 9.47017 | 34851 ft | 453 kts | 301° |
| 2026-05-01 11:50 | 49.39209 | 9.42827 | 35216 ft | 452 kts | 302° |
| 2026-05-01 11:50 | 49.40776 | 9.38651 | 35585 ft | 451 kts | 302° |
| 2026-05-01 11:50 | 49.42339 | 9.34474 | 35927 ft | 451 kts | 301° |
| 2026-05-01 11:50 | 49.43900 | 9.30298 | 36227 ft | 451 kts | 302° |
| 2026-05-01 11:51 | 49.45459 | 9.26125 | 36330 ft | 450 kts | 302° |
| 2026-05-01 11:51 | 49.47017 | 9.21951 | 36343 ft | 450 kts | 302° |
| 2026-05-01 11:51 | 49.50122 | 9.13621 | 36339 ft | 448 kts | 302° |
| 2026-05-01 11:52 | 49.53212 | 9.05283 | 36345 ft | 449 kts | 301° |
| 2026-05-01 11:52 | 49.56285 | 8.96962 | 36333 ft | 450 kts | 301° |
| 2026-05-01 11:53 | 49.59382 | 8.88581 | 36346 ft | 450 kts | 301° |
| 2026-05-01 11:53 | 49.62474 | 8.80176 | 36342 ft | 451 kts | 300° |
| 2026-05-01 11:54 | 49.65559 | 8.71744 | 36348 ft | 451 kts | 301° |
| 2026-05-01 11:54 | 49.68636 | 8.63315 | 36355 ft | 450 kts | 301° |
| 2026-05-01 11:55 | 49.71711 | 8.54900 | 36352 ft | 450 kts | 300° |
| 2026-05-01 11:55 | 49.74777 | 8.46478 | 36351 ft | 449 kts | 301° |
| 2026-05-01 11:56 | 49.77822 | 8.38045 | 36349 ft | 449 kts | 300° |
| 2026-05-01 11:56 | 49.80863 | 8.29609 | 36345 ft | 449 kts | 300° |
| 2026-05-01 11:57 | 49.83905 | 8.21158 | 36338 ft | 449 kts | 300° |
| 2026-05-01 11:57 | 49.86940 | 8.12701 | 36335 ft | 449 kts | 299° |
| 2026-05-01 11:58 | 49.89962 | 8.04230 | 36328 ft | 449 kts | 299° |
| 2026-05-01 11:59 | 49.94498 | 7.91485 | 36332 ft | 450 kts | 299° |
| 2026-05-01 11:59 | 49.97514 | 7.82966 | 36335 ft | 450 kts | 299° |
| 2026-05-01 12:00 | 50.02024 | 7.70180 | 36339 ft | 450 kts | 299° |
| 2026-05-01 12:01 | 50.06525 | 7.57371 | 36341 ft | 450 kts | 298° |
| 2026-05-01 12:01 | 50.09501 | 7.48879 | 36330 ft | 450 kts | 298° |
| 2026-05-01 12:02 | 50.12489 | 7.40300 | 36335 ft | 450 kts | 298° |
| 2026-05-01 12:02 | 50.15468 | 7.31691 | 36305 ft | 452 kts | 298° |
| 2026-05-01 12:03 | 50.18459 | 7.23042 | 36301 ft | 454 kts | 298° |
| 2026-05-01 12:03 | 50.21463 | 7.14354 | 36308 ft | 455 kts | 298° |
| 2026-05-01 12:04 | 50.24463 | 7.05654 | 36310 ft | 455 kts | 298° |
| 2026-05-01 12:04 | 50.27438 | 6.96969 | 36296 ft | 444 kts | 298° |
| 2026-05-01 12:04 | 50.28873 | 6.92757 | 35977 ft | 435 kts | 298° |
| 2026-05-01 12:05 | 50.30287 | 6.88594 | 35364 ft | 433 kts | 297° |
| 2026-05-01 12:05 | 50.33136 | 6.80209 | 33694 ft | 440 kts | 298° |
| 2026-05-01 12:05 | 50.34579 | 6.75971 | 32949 ft | 440 kts | 298° |
| 2026-05-01 12:06 | 50.36010 | 6.71760 | 32341 ft | 437 kts | 298° |
| 2026-05-01 12:06 | 50.37426 | 6.67578 | 31765 ft | 433 kts | 298° |
| 2026-05-01 12:06 | 50.38828 | 6.63424 | 31212 ft | 429 kts | 298° |
| 2026-05-01 12:06 | 50.40217 | 6.59308 | 30690 ft | 425 kts | 298° |
| 2026-05-01 12:07 | 50.41591 | 6.55224 | 30130 ft | 422 kts | 298° |
| 2026-05-01 12:07 | 50.42950 | 6.51170 | 29511 ft | 419 kts | 299° |
| 2026-05-01 12:07 | 50.44301 | 6.47135 | 28876 ft | 416 kts | 298° |
| 2026-05-01 12:07 | 50.45648 | 6.43120 | 28223 ft | 416 kts | 298° |
| 2026-05-01 12:08 | 50.46996 | 6.39108 | 27626 ft | 414 kts | 298° |
| 2026-05-01 12:08 | 50.48329 | 6.35124 | 27141 ft | 410 kts | 298° |
| 2026-05-01 12:08 | 50.49641 | 6.31183 | 26656 ft | 405 kts | 298° |
| 2026-05-01 12:08 | 50.50941 | 6.27266 | 26130 ft | 404 kts | 298° |
| 2026-05-01 12:09 | 50.52237 | 6.23364 | 25623 ft | 402 kts | 298° |
| 2026-05-01 12:09 | 50.53529 | 6.19479 | 25194 ft | 399 kts | 298° |
| 2026-05-01 12:09 | 50.54809 | 6.15622 | 24733 ft | 397 kts | 298° |
| 2026-05-01 12:09 | 50.56077 | 6.11785 | 24291 ft | 394 kts | 298° |
| 2026-05-01 12:10 | 50.57336 | 6.07969 | 23808 ft | 392 kts | 298° |
| 2026-05-01 12:10 | 50.59828 | 6.00414 | 22798 ft | 387 kts | 297° |
| 2026-05-01 12:10 | 50.61063 | 5.96661 | 22271 ft | 385 kts | 297° |
| 2026-05-01 12:11 | 50.63511 | 5.89188 | 21258 ft | 382 kts | 297° |
| 2026-05-01 12:11 | 50.64715 | 5.85492 | 20814 ft | 378 kts | 297° |
| 2026-05-01 12:11 | 50.65910 | 5.81812 | 20325 ft | 376 kts | 296° |
| 2026-05-01 12:12 | 50.67091 | 5.78150 | 19891 ft | 373 kts | 296° |
| 2026-05-01 12:12 | 50.68262 | 5.74516 | 19450 ft | 371 kts | 296° |
| 2026-05-01 12:12 | 50.69426 | 5.70899 | 19004 ft | 369 kts | 296° |
| 2026-05-01 12:12 | 50.70581 | 5.67303 | 18563 ft | 367 kts | 296° |
| 2026-05-01 12:13 | 50.71716 | 5.63766 | 18079 ft | 365 kts | 296° |
| 2026-05-01 12:13 | 50.72859 | 5.60202 | 17603 ft | 363 kts | 295° |
| 2026-05-01 12:13 | 50.73994 | 5.56650 | 17133 ft | 362 kts | 295° |
| 2026-05-01 12:13 | 50.75125 | 5.53108 | 16681 ft | 360 kts | 295° |
| 2026-05-01 12:14 | 50.76249 | 5.49590 | 16268 ft | 357 kts | 295° |
| 2026-05-01 12:14 | 50.77363 | 5.46098 | 15865 ft | 355 kts | 295° |
| 2026-05-01 12:14 | 50.78472 | 5.42617 | 15456 ft | 353 kts | 295° |
| 2026-05-01 12:14 | 50.79571 | 5.39154 | 15046 ft | 352 kts | 295° |
| 2026-05-01 12:15 | 50.80663 | 5.35708 | 14646 ft | 350 kts | 295° |
| 2026-05-01 12:15 | 50.81749 | 5.32282 | 14248 ft | 348 kts | 295° |
| 2026-05-01 12:15 | 50.82827 | 5.28871 | 13815 ft | 346 kts | 294° |
| 2026-05-01 12:15 | 50.83895 | 5.25474 | 13387 ft | 344 kts | 294° |
| 2026-05-01 12:16 | 50.84956 | 5.22100 | 12954 ft | 342 kts | 294° |
| 2026-05-01 12:16 | 50.86010 | 5.18748 | 12536 ft | 339 kts | 294° |
| 2026-05-01 12:16 | 50.86997 | 5.15371 | 12283 ft | 337 kts | 288° |
| 2026-05-01 12:16 | 50.87635 | 5.11821 | 12251 ft | 334 kts | 278° |
| 2026-05-01 12:17 | 50.87907 | 5.08193 | 12031 ft | 330 kts | 270° |
| 2026-05-01 12:17 | 50.88064 | 5.04632 | 11884 ft | 319 kts | 270° |
| 2026-05-01 12:17 | 50.88221 | 5.01188 | 11739 ft | 308 kts | 270° |
| 2026-05-01 12:17 | 50.88372 | 4.97829 | 11448 ft | 304 kts | 270° |
| 2026-05-01 12:18 | 50.88520 | 4.94498 | 11110 ft | 302 kts | 270° |
| 2026-05-01 12:18 | 50.88665 | 4.91189 | 10778 ft | 300 kts | 270° |
| 2026-05-01 12:18 | 50.88808 | 4.87902 | 10428 ft | 298 kts | 270° |
| 2026-05-01 12:18 | 50.88948 | 4.84636 | 10072 ft | 296 kts | 270° |
| 2026-05-01 12:19 | 50.89087 | 4.81390 | 9683 ft | 294 kts | 270° |
| 2026-05-01 12:19 | 50.89225 | 4.78166 | 9290 ft | 293 kts | 270° |
| 2026-05-01 12:19 | 50.89360 | 4.74963 | 8903 ft | 291 kts | 270° |
| 2026-05-01 12:19 | 50.89495 | 4.71779 | 8511 ft | 289 kts | 270° |
| 2026-05-01 12:20 | 50.89630 | 4.68623 | 8285 ft | 286 kts | 270° |
| 2026-05-01 12:20 | 50.89761 | 4.65492 | 8269 ft | 285 kts | 271° |
| 2026-05-01 12:20 | 50.89889 | 4.62356 | 8273 ft | 285 kts | 271° |
| 2026-05-01 12:20 | 50.90015 | 4.59217 | 8274 ft | 286 kts | 271° |
| 2026-05-01 12:21 | 50.90139 | 4.56080 | 8275 ft | 285 kts | 270° |
| 2026-05-01 12:21 | 50.90277 | 4.52939 | 8273 ft | 286 kts | 272° |
| 2026-05-01 12:21 | 50.90508 | 4.49809 | 8273 ft | 286 kts | 275° |
| 2026-05-01 12:21 | 50.90795 | 4.46688 | 8273 ft | 287 kts | 276° |
| 2026-05-01 12:22 | 50.91101 | 4.43569 | 8278 ft | 287 kts | 276° |
| 2026-05-01 12:22 | 50.91406 | 4.40448 | 8275 ft | 286 kts | 276° |
| 2026-05-01 12:22 | 50.91699 | 4.37327 | 8273 ft | 286 kts | 275° |
| 2026-05-01 12:22 | 50.91984 | 4.34210 | 8274 ft | 286 kts | 275° |
| 2026-05-01 12:23 | 50.92264 | 4.31090 | 8276 ft | 286 kts | 275° |
| 2026-05-01 12:23 | 50.92540 | 4.27964 | 8228 ft | 286 kts | 275° |
| 2026-05-01 12:23 | 50.92811 | 4.24851 | 7922 ft | 282 kts | 275° |
| 2026-05-01 12:23 | 50.93077 | 4.21807 | 7670 ft | 275 kts | 275° |
| 2026-05-01 12:24 | 50.93268 | 4.18839 | 7426 ft | 266 kts | 266° |
| 2026-05-01 12:24 | 50.92994 | 4.16013 | 7179 ft | 256 kts | 250° |
| 2026-05-01 12:24 | 50.92263 | 4.13516 | 6944 ft | 246 kts | 234° |
| 2026-05-01 12:24 | 50.91181 | 4.11486 | 6699 ft | 238 kts | 220° |
| 2026-05-01 12:25 | 50.89911 | 4.09864 | 6449 ft | 232 kts | 214° |
| 2026-05-01 12:25 | 50.86938 | 4.08581 | 5984 ft | 221 kts | 174° |
| 2026-05-01 12:25 | 50.85480 | 4.09234 | 5782 ft | 217 kts | 156° |
| 2026-05-01 12:26 | 50.84123 | 4.10219 | 5583 ft | 212 kts | 156° |
| 2026-05-01 12:26 | 50.81590 | 4.12386 | 4893 ft | 215 kts | 130° |
| 2026-05-01 12:26 | 50.81106 | 4.14611 | 4500 ft | 223 kts | 89° |
| 2026-05-01 12:27 | 50.81572 | 4.16957 | 4165 ft | 225 kts | 69° |
| 2026-05-01 12:27 | 50.82870 | 4.21437 | 3493 ft | 223 kts | 68° |
| 2026-05-01 12:28 | 50.84188 | 4.25827 | 2839 ft | 218 kts | 66° |
| 2026-05-01 12:28 | 50.84831 | 4.27957 | 2562 ft | 211 kts | 67° |
| 2026-05-01 12:28 | 50.86012 | 4.31922 | 2191 ft | 190 kts | 68° |
| 2026-05-01 12:29 | 50.86564 | 4.33809 | 1811 ft | 187 kts | 67° |
| 2026-05-01 12:29 | 50.87100 | 4.35614 | 1576 ft | 174 kts | 69° |
| 2026-05-01 12:29 | 50.87988 | 4.38915 | 1107 ft | 153 kts | 72° |
| 2026-05-01 12:30 | 50.88841 | 4.41899 | 732 ft | 155 kts | 69° |
| 2026-05-01 12:30 | 50.89277 | 4.43410 | 505 ft | 148 kts | 70° |
| 2026-05-01 12:30 | 50.89709 | 4.44887 | 304 ft | 147 kts | 70° |
| 2026-05-01 12:31 | 50.90114 | 4.46324 | 151 ft | 134 kts | 69° |
| 2026-05-01 12:31 | 50.90463 | 4.47549 | 122 ft | 105 kts | 65° |
| 2026-05-01 12:31 | 50.90695 | 4.48350 | 120 ft | 55 kts | 65° |
| 2026-05-01 12:31 | 50.90820 | 4.48783 | 118 ft | 38 kts | 65° |
| 2026-05-01 12:32 | 50.90920 | 4.49129 | 119 ft | 33 kts | 68° |
| 2026-05-01 12:32 | 50.90966 | 4.49644 | 120 ft | 14 kts | 119° |
| 2026-05-01 12:32 | 50.90890 | 4.49742 | 121 ft | 14 kts | 151° |
| 2026-05-01 12:33 | 50.90817 | 4.49673 | 123 ft | 15 kts | 246° |
| 2026-05-01 12:33 | 50.90773 | 4.49523 | 123 ft | 16 kts | 244° |
| 2026-05-01 12:33 | 50.90725 | 4.49360 | 119 ft | 17 kts | 246° |
| 2026-05-01 12:33 | 50.90675 | 4.49180 | 120 ft | 17 kts | 245° |
| 2026-05-01 12:34 | 50.90623 | 4.49001 | 120 ft | 18 kts | 245° |
| 2026-05-01 12:34 | 50.90576 | 4.48836 | 118 ft | 13 kts | 245° |
| 2026-05-01 12:34 | 50.90529 | 4.48806 | 121 ft | 8 kts | 154° |
| 2026-05-01 12:34 | 50.90483 | 4.48840 | 118 ft | 3 kts | 155° |
| 2026-05-01 12:35 | 50.90474 | 4.48847 | 118 ft | 0 kts | 155° |